Viimsi — ES2084 — position and weather

sailwx.info

Track history (hours):
 
Tides and Currents Weather Stations Pressure Air Temp Water Temp Dewpoint Dewpoint Depression Visibility Wind Speed Wind Dir Waves Ship Positions

Viimsi

Last reported at 2014-Jul-30 08:09 UTC. Time now 2014-Jul-30 11:06 UTC.
Position N 59°32' E 024°30'.

Length 78 m; draft 4.5 m.

Type: Ship. MMSI: 276297000.

Date/timePositionNaut miles runAvg speedWind from/ knotsBaromVisibWave heightAir tempDewpointWater temp
2014-Jul-30 08:09N 59°32' E 024°30'0 0.0
2014-Jul-30 07:33N 59°32' E 024°30'0 0.0
2014-Jul-30 06:29N 59°32' E 024°30'0 0.0
2014-Jul-30 05:31N 59°32' E 024°30'0 0.0
2014-Jul-30 03:23N 59°32' E 024°30'0 0.0
2014-Jul-30 02:27N 59°32' E 024°30'0 0.0
2014-Jul-30 01:31N 59°32' E 024°30'0 0.0
2014-Jul-30 00:32N 59°32' E 024°30'0 0.0
2014-Jul-29 23:33N 59°32' E 024°30'0 0.0
2014-Jul-29 22:33N 59°32' E 024°30'0 0.0
2014-Jul-29 21:33N 59°32' E 024°30'0 0.1
2014-Jul-29 19:06N 59°31' E 024°31'0 0.1
2014-Jul-29 18:33N 59°31' E 024°31'0 0.0
2014-Jul-29 16:04N 59°31' E 024°31'0 0.1
2014-Jul-29 15:33N 59°31' E 024°31'1 1.2
2014-Jul-29 14:32N 59°31' E 024°33'7 6.9
2014-Jul-29 13:33N 59°28' E 024°45'0 0.0
2014-Jul-29 06:31N 59°28' E 024°45'3 0.2
2014-Jul-28 13:12N 59°28' E 024°39'0 0.0
2014-Jul-28 12:31N 59°28' E 024°39'0 0.0
2014-Jul-28 05:33N 59°28' E 024°39'0 0.0
2014-Jul-28 04:33N 59°28' E 024°39'0 0.0
2014-Jul-27 17:33N 59°28' E 024°39'0 0.0
2014-Jul-27 16:33N 59°28' E 024°39'0 0.0
2014-Jul-27 13:33N 59°28' E 024°39'0 0.0
2014-Jul-27 12:33N 59°28' E 024°39'0 0.0
2014-Jul-27 11:33N 59°28' E 024°39'0 0.0
2014-Jul-27 10:33N 59°28' E 024°39'0 0.0
2014-Jul-27 09:33N 59°28' E 024°39'0 0.0
2014-Jul-27 04:33N 59°28' E 024°39'0 0.0
2014-Jul-27 03:33N 59°28' E 024°39'0 0.0
2014-Jul-27 02:33N 59°28' E 024°39'3 0.3
2014-Jul-26 16:06N 59°28' E 024°45'0 0.0
2014-Jul-26 10:33N 59°28' E 024°45'0 0.0
2014-Jul-26 09:31N 59°28' E 024°45'1 1.2
2014-Jul-26 08:28N 59°28' E 024°43'0 0.0
2014-Jul-26 07:33N 59°28' E 024°43'0 0.0
2014-Jul-26 06:33N 59°28' E 024°43'0 0.0
2014-Jul-26 05:33N 59°28' E 024°43'0 0.0
2014-Jul-26 04:33N 59°28' E 024°43'2 2.1
2014-Jul-26 03:33N 59°27' E 024°46'0 0.0
2014-Jul-26 02:33N 59°27' E 024°46'0 0.0
2014-Jul-26 01:33N 59°27' E 024°46'0 0.0
2014-Jul-25 23:15N 59°27' E 024°46'0 0.1
2014-Jul-25 22:19N 59°27' E 024°46'4 5.7
2014-Jul-25 21:32N 59°30' E 024°42'3 0.5
2014-Jul-25 15:04N 59°28' E 024°39'0 0.0
2014-Jul-25 13:32N 59°28' E 024°39'16 7.0
2014-Jul-25 11:16N 59°26' E 024°08'5 7.3
2014-Jul-25 10:32N 59°22' E 024°01'3 0.5
2014-Jul-25 04:04N 59°20' E 024°05'0 0.0
2014-Jul-25 02:28N 59°20' E 024°05'0 0.0
2014-Jul-25 01:25N 59°20' E 024°05'0 0.0
2014-Jul-24 23:30N 59°20' E 024°05'0 0.0
2014-Jul-24 22:33N 59°20' E 024°05'0 0.0
2014-Jul-24 21:33N 59°20' E 024°05'0 0.0
2014-Jul-24 20:33N 59°20' E 024°05'0 0.0
2014-Jul-24 19:28N 59°20' E 024°05'6 0.4
2014-Jul-24 06:12N 59°22' E 023°54'0 0.3
2014-Jul-24 05:11N 59°22' E 023°54'  
2014-Jul-21 02:27N 59°28' E 024°43'7 7.2
2014-Jul-21 01:31N 59°34' E 024°41'4 4.0
2014-Jul-21 00:33N 59°36' E 024°48'1 0.5
2014-Jul-20 23:27N 59°36' E 024°48'1 0.1
2014-Jul-20 15:32N 59°35' E 024°48'0 0.0
2014-Jul-20 14:33N 59°35' E 024°48'  
Track history (hours):
 
Tides and Currents Weather Stations Pressure Air Temp Water Temp Dewpoint Dewpoint Depression Visibility Wind Speed Wind Dir Waves Ship Positions

Viimsi

Last reported at 2014-Jul-30 08:09 UTC. Time now 2014-Jul-30 11:06 UTC.
Position N 59°32' E 024°30'.

Length 78 m; draft 4.5 m.

Type: Ship. MMSI: 276297000.

Date/timePositionNaut miles runAvg speedWind from/ knotsBaromVisibWave heightAir tempDewpointWater temp
2014-Jul-30 08:09N 59°32' E 024°30'0 0.0
2014-Jul-30 07:33N 59°32' E 024°30'0 0.0
2014-Jul-30 06:29N 59°32' E 024°30'0 0.0
2014-Jul-30 05:31N 59°32' E 024°30'0 0.0
2014-Jul-30 03:23N 59°32' E 024°30'0 0.0
2014-Jul-30 02:27N 59°32' E 024°30'0 0.0
2014-Jul-30 01:31N 59°32' E 024°30'0 0.0
2014-Jul-30 00:32N 59°32' E 024°30'0 0.0
2014-Jul-29 23:33N 59°32' E 024°30'0 0.0
2014-Jul-29 22:33N 59°32' E 024°30'0 0.0
2014-Jul-29 21:33N 59°32' E 024°30'0 0.1
2014-Jul-29 19:06N 59°31' E 024°31'0 0.1
2014-Jul-29 18:33N 59°31' E 024°31'0 0.0
2014-Jul-29 16:04N 59°31' E 024°31'0 0.1
2014-Jul-29 15:33N 59°31' E 024°31'1 1.2
2014-Jul-29 14:32N 59°31' E 024°33'7 6.9
2014-Jul-29 13:33N 59°28' E 024°45'0 0.0
2014-Jul-29 06:31N 59°28' E 024°45'3 0.2
2014-Jul-28 13:12N 59°28' E 024°39'0 0.0
2014-Jul-28 12:31N 59°28' E 024°39'0 0.0
2014-Jul-28 05:33N 59°28' E 024°39'0 0.0
2014-Jul-28 04:33N 59°28' E 024°39'0 0.0
2014-Jul-27 17:33N 59°28' E 024°39'0 0.0
2014-Jul-27 16:33N 59°28' E 024°39'0 0.0
2014-Jul-27 13:33N 59°28' E 024°39'0 0.0
2014-Jul-27 12:33N 59°28' E 024°39'0 0.0
2014-Jul-27 11:33N 59°28' E 024°39'0 0.0
2014-Jul-27 10:33N 59°28' E 024°39'0 0.0
2014-Jul-27 09:33N 59°28' E 024°39'0 0.0
2014-Jul-27 04:33N 59°28' E 024°39'0 0.0
2014-Jul-27 03:33N 59°28' E 024°39'0 0.0
2014-Jul-27 02:33N 59°28' E 024°39'3 0.3
2014-Jul-26 16:06N 59°28' E 024°45'0 0.0
2014-Jul-26 10:33N 59°28' E 024°45'0 0.0
2014-Jul-26 09:31N 59°28' E 024°45'1 1.2
2014-Jul-26 08:28N 59°28' E 024°43'0 0.0
2014-Jul-26 07:33N 59°28' E 024°43'0 0.0
2014-Jul-26 06:33N 59°28' E 024°43'0 0.0
2014-Jul-26 05:33N 59°28' E 024°43'0 0.0
2014-Jul-26 04:33N 59°28' E 024°43'2 2.1
2014-Jul-26 03:33N 59°27' E 024°46'0 0.0
2014-Jul-26 02:33N 59°27' E 024°46'0 0.0
2014-Jul-26 01:33N 59°27' E 024°46'0 0.0
2014-Jul-25 23:15N 59°27' E 024°46'0 0.1
2014-Jul-25 22:19N 59°27' E 024°46'4 5.7
2014-Jul-25 21:32N 59°30' E 024°42'3 0.5
2014-Jul-25 15:04N 59°28' E 024°39'0 0.0
2014-Jul-25 13:32N 59°28' E 024°39'16 7.0
2014-Jul-25 11:16N 59°26' E 024°08'5 7.3
2014-Jul-25 10:32N 59°22' E 024°01'3 0.5
2014-Jul-25 04:04N 59°20' E 024°05'0 0.0
2014-Jul-25 02:28N 59°20' E 024°05'0 0.0
2014-Jul-25 01:25N 59°20' E 024°05'0 0.0
2014-Jul-24 23:30N 59°20' E 024°05'0 0.0
2014-Jul-24 22:33N 59°20' E 024°05'0 0.0
2014-Jul-24 21:33N 59°20' E 024°05'0 0.0
2014-Jul-24 20:33N 59°20' E 024°05'0 0.0
2014-Jul-24 19:28N 59°20' E 024°05'6 0.4
2014-Jul-24 06:12N 59°22' E 023°54'0 0.3
2014-Jul-24 05:11N 59°22' E 023°54'  
2014-Jul-21 02:27N 59°28' E 024°43'7 7.2
2014-Jul-21 01:31N 59°34' E 024°41'4 4.0
2014-Jul-21 00:33N 59°36' E 024°48'1 0.5
2014-Jul-20 23:27N 59°36' E 024°48'1 0.1
2014-Jul-20 15:32N 59°35' E 024°48'0 0.0
2014-Jul-20 14:33N 59°35' E 024°48'  

Dump ship's entire track history